sensor_id;sensor_type;location;lat;lon;timestamp;pressure;altitude;pressure_sealevel;temperature;humidity
78144;BME280;67394;52.522;13.622;2023-04-25T00:01:20;99955.06;;;8.05;75.56
78144;BME280;67394;52.522;13.622;2023-04-25T00:03:47;99965.28;;;8.08;74.55
78144;BME280;67394;52.522;13.622;2023-04-25T00:06:14;99955.06;;;8.05;74.89
78144;BME280;67394;52.522;13.622;2023-04-25T00:08:41;99955.94;;;8.01;74.63
78144;BME280;67394;52.522;13.622;2023-04-25T00:11:07;99954.25;;;7.94;74.95
78144;BME280;67394;52.522;13.622;2023-04-25T00:13:34;99949.97;;;7.96;74.98
78144;BME280;67394;52.522;13.622;2023-04-25T00:16:00;99947.44;;;7.90;75.12
78144;BME280;67394;52.522;13.622;2023-04-25T00:18:26;99946.59;;;7.91;74.32
78144;BME280;67394;52.522;13.622;2023-04-25T00:20:53;99949.16;;;7.90;74.38
78144;BME280;67394;52.522;13.622;2023-04-25T00:23:19;99946.59;;;7.90;74.23
78144;BME280;67394;52.522;13.622;2023-04-25T00:25:47;99953.41;;;7.83;74.69
78144;BME280;67394;52.522;13.622;2023-04-25T00:28:13;99952.56;;;7.80;75.01
78144;BME280;67394;52.522;13.622;2023-04-25T00:30:40;99950.00;;;7.75;75.07
78144;BME280;67394;52.522;13.622;2023-04-25T00:33:08;99942.38;;;7.81;74.32
78144;BME280;67394;52.522;13.622;2023-04-25T00:35:34;99944.06;;;7.81;73.86
78144;BME280;67394;52.522;13.622;2023-04-25T00:38:01;99947.47;;;7.78;73.64
78144;BME280;67394;52.522;13.622;2023-04-25T00:42:53;99947.44;;;7.73;73.49
78144;BME280;67394;52.522;13.622;2023-04-25T00:45:19;99946.63;;;7.79;72.83
78144;BME280;67394;52.522;13.622;2023-04-25T00:47:46;99944.06;;;7.76;73.81
78144;BME280;67394;52.522;13.622;2023-04-25T00:50:13;99938.09;;;7.76;73.91
78144;BME280;67394;52.522;13.622;2023-04-25T00:52:41;99942.34;;;7.77;73.71
78144;BME280;67394;52.522;13.622;2023-04-25T00:55:10;99946.63;;;7.73;73.72
78144;BME280;67394;52.522;13.622;2023-04-25T00:57:38;99952.56;;;7.81;72.50
78144;BME280;67394;52.522;13.622;2023-04-25T01:00:06;99945.75;;;7.86;72.55
78144;BME280;67394;52.522;13.622;2023-04-25T01:02:34;99950.88;;;7.80;73.21
78144;BME280;67394;52.522;13.622;2023-04-25T01:05:02;99943.22;;;7.83;72.14
78144;BME280;67394;52.522;13.622;2023-04-25T01:07:29;99940.66;;;7.80;73.28
78144;BME280;67394;52.522;13.622;2023-04-25T01:09:56;99948.31;;;7.79;73.23
78144;BME280;67394;52.522;13.622;2023-04-25T01:12:33;99948.31;;;7.77;73.46
78144;BME280;67394;52.522;13.622;2023-04-25T01:15:00;99941.53;;;7.73;73.98
78144;BME280;67394;52.522;13.622;2023-04-25T01:17:27;99936.41;;;7.76;73.28
78144;BME280;67394;52.522;13.622;2023-04-25T01:19:53;99942.34;;;7.84;72.33
78144;BME280;67394;52.522;13.622;2023-04-25T01:22:20;99933.00;;;7.83;73.52
78144;BME280;67394;52.522;13.622;2023-04-25T01:24:46;99936.38;;;7.85;73.01
78144;BME280;67394;52.522;13.622;2023-04-25T01:27:13;99932.16;;;7.83;73.13
78144;BME280;67394;52.522;13.622;2023-04-25T01:29:40;99936.38;;;7.85;73.48
78144;BME280;67394;52.522;13.622;2023-04-25T01:32:06;99933.00;;;7.86;73.08
78144;BME280;67394;52.522;13.622;2023-04-25T01:34:33;99944.91;;;7.81;72.98
78144;BME280;67394;52.522;13.622;2023-04-25T01:37:00;99942.34;;;7.86;72.76
78144;BME280;67394;52.522;13.622;2023-04-25T01:41:52;99933.84;;;7.93;73.04
78144;BME280;67394;52.522;13.622;2023-04-25T01:44:18;99949.16;;;7.91;72.42
78144;BME280;67394;52.522;13.622;2023-04-25T01:46:44;99937.25;;;7.93;73.41
78144;BME280;67394;52.522;13.622;2023-04-25T01:49:11;99936.41;;;7.91;73.08
78144;BME280;67394;52.522;13.622;2023-04-25T01:51:37;99936.38;;;7.99;72.59
78144;BME280;67394;52.522;13.622;2023-04-25T01:54:04;99939.78;;;7.99;72.94
78144;BME280;67394;52.522;13.622;2023-04-25T01:56:31;99938.06;;;7.98;72.75
78144;BME280;67394;52.522;13.622;2023-04-25T02:01:25;99940.63;;;7.95;73.05
78144;BME280;67394;52.522;13.622;2023-04-25T02:03:51;99942.31;;;7.95;73.20
78144;BME280;67394;52.522;13.622;2023-04-25T02:06:18;99950.00;;;7.93;73.22
78144;BME280;67394;52.522;13.622;2023-04-25T02:08:44;99948.31;;;7.92;72.76
78144;BME280;67394;52.522;13.622;2023-04-25T02:11:10;99953.38;;;7.95;72.86
78144;BME280;67394;52.522;13.622;2023-04-25T02:13:37;99944.06;;;7.93;73.05
78144;BME280;67394;52.522;13.622;2023-04-25T02:16:03;99944.88;;;7.96;72.66
78144;BME280;67394;52.522;13.622;2023-04-25T02:18:30;99953.41;;;7.94;72.92
78144;BME280;67394;52.522;13.622;2023-04-25T02:23:21;99950.84;;;7.98;73.02
78144;BME280;67394;52.522;13.622;2023-04-25T02:25:48;99944.88;;;7.96;72.49
78144;BME280;67394;52.522;13.622;2023-04-25T02:28:15;99945.72;;;8.00;72.51
78144;BME280;67394;52.522;13.622;2023-04-25T02:30:41;99942.31;;;7.95;72.93
78144;BME280;67394;52.522;13.622;2023-04-25T02:33:07;99949.13;;;7.96;72.67
78144;BME280;67394;52.522;13.622;2023-04-25T02:35:34;99949.13;;;8.00;72.25
78144;BME280;67394;52.522;13.622;2023-04-25T02:38:00;99947.44;;;7.99;72.74
78144;BME280;67394;52.522;13.622;2023-04-25T02:42:51;99946.59;;;7.97;73.07
78144;BME280;67394;52.522;13.622;2023-04-25T02:45:18;99942.34;;;7.93;73.09
78144;BME280;67394;52.522;13.622;2023-04-25T02:47:44;99946.59;;;7.94;73.28
78144;BME280;67394;52.522;13.622;2023-04-25T02:50:11;99944.91;;;7.93;72.99
78144;BME280;67394;52.522;13.622;2023-04-25T02:52:37;99943.19;;;7.92;73.06
78144;BME280;67394;52.522;13.622;2023-04-25T02:55:03;99941.50;;;7.88;73.25
78144;BME280;67394;52.522;13.622;2023-04-25T02:57:30;99943.19;;;7.91;72.57
78144;BME280;67394;52.522;13.622;2023-04-25T02:59:56;99946.59;;;7.91;72.97
78144;BME280;67394;52.522;13.622;2023-04-25T03:02:33;99944.88;;;7.95;72.97
78144;BME280;67394;52.522;13.622;2023-04-25T03:05:00;99940.63;;;7.95;72.15
78144;BME280;67394;52.522;13.622;2023-04-25T03:07:26;99945.72;;;7.95;72.97
78144;BME280;67394;52.522;13.622;2023-04-25T03:10:07;99944.88;;;7.96;73.26
78144;BME280;67394;52.522;13.622;2023-04-25T03:12:33;99944.06;;;7.90;72.95
78144;BME280;67394;52.522;13.622;2023-04-25T03:14:59;99942.34;;;7.92;73.46
78144;BME280;67394;52.522;13.622;2023-04-25T03:17:26;99939.81;;;7.90;73.96
78144;BME280;67394;52.522;13.622;2023-04-25T03:19:52;99942.34;;;7.93;73.25
78144;BME280;67394;52.522;13.622;2023-04-25T03:22:19;99938.94;;;7.91;73.43
78144;BME280;67394;52.522;13.622;2023-04-25T03:24:45;99940.66;;;7.91;73.62
78144;BME280;67394;52.522;13.622;2023-04-25T03:27:11;99945.75;;;7.88;73.63
78144;BME280;67394;52.522;13.622;2023-04-25T03:29:37;99941.50;;;7.87;73.30
78144;BME280;67394;52.522;13.622;2023-04-25T03:32:04;99938.06;;;7.95;73.33
78144;BME280;67394;52.522;13.622;2023-04-25T03:34:30;99937.25;;;7.93;73.23
78144;BME280;67394;52.522;13.622;2023-04-25T03:39:22;99938.94;;;7.90;73.37
78144;BME280;67394;52.522;13.622;2023-04-25T03:41:48;99943.19;;;7.92;72.72
78144;BME280;67394;52.522;13.622;2023-04-25T03:44:14;99946.59;;;7.91;73.29
78144;BME280;67394;52.522;13.622;2023-04-25T03:46:41;99948.31;;;7.89;72.60
78144;BME280;67394;52.522;13.622;2023-04-25T03:49:07;99948.28;;;7.86;73.04
78144;BME280;67394;52.522;13.622;2023-04-25T03:51:33;99948.31;;;7.88;73.29
78144;BME280;67394;52.522;13.622;2023-04-25T03:58:52;99961.06;;;7.88;73.67
78144;BME280;67394;52.522;13.622;2023-04-25T04:01:18;99958.50;;;7.85;73.47
78144;BME280;67394;52.522;13.622;2023-04-25T04:03:45;99958.50;;;7.86;73.95
78144;BME280;67394;52.522;13.622;2023-04-25T04:06:11;99961.91;;;7.85;74.23
78144;BME280;67394;52.522;13.622;2023-04-25T04:08:38;99964.47;;;7.91;73.62
78144;BME280;67394;52.522;13.622;2023-04-25T04:11:04;99965.31;;;7.90;73.42
78144;BME280;67394;52.522;13.622;2023-04-25T04:13:31;99963.59;;;7.85;73.41
78144;BME280;67394;52.522;13.622;2023-04-25T04:18:27;99964.44;;;7.85;73.12
78144;BME280;67394;52.522;13.622;2023-04-25T04:20:54;99967.00;;;7.87;73.41
78144;BME280;67394;52.522;13.622;2023-04-25T04:23:20;99972.97;;;7.92;73.01
78144;BME280;67394;52.522;13.622;2023-04-25T04:25:46;99973.81;;;7.88;72.83
78144;BME280;67394;52.522;13.622;2023-04-25T04:28:13;99977.22;;;7.85;73.44
78144;BME280;67394;52.522;13.622;2023-04-25T04:30:39;99979.75;;;7.85;72.88
78144;BME280;67394;52.522;13.622;2023-04-25T04:33:05;99972.97;;;7.81;72.96
78144;BME280;67394;52.522;13.622;2023-04-25T04:35:33;99974.66;;;7.87;73.19
78144;BME280;67394;52.522;13.622;2023-04-25T04:37:59;99978.91;;;7.89;73.25
78144;BME280;67394;52.522;13.622;2023-04-25T04:40:25;99984.88;;;7.90;72.86
78144;BME280;67394;52.522;13.622;2023-04-25T04:42:52;99981.44;;;7.95;73.49
78144;BME280;67394;52.522;13.622;2023-04-25T04:45:18;99981.50;;;7.83;72.67
78144;BME280;67394;52.522;13.622;2023-04-25T04:47:44;99985.72;;;7.87;73.47
78144;BME280;67394;52.522;13.622;2023-04-25T04:50:11;99984.03;;;7.91;73.45
78144;BME280;67394;52.522;13.622;2023-04-25T04:52:38;99990.81;;;7.90;73.00
78144;BME280;67394;52.522;13.622;2023-04-25T04:55:05;99992.53;;;7.91;72.72
78144;BME280;67394;52.522;13.622;2023-04-25T04:57:32;99985.72;;;7.92;73.73
78144;BME280;67394;52.522;13.622;2023-04-25T05:00:01;99989.97;;;7.96;73.43
78144;BME280;67394;52.522;13.622;2023-04-25T05:02:28;99984.03;;;7.94;73.34
78144;BME280;67394;52.522;13.622;2023-04-25T05:04:55;99984.84;;;7.96;72.90
78144;BME280;67394;52.522;13.622;2023-04-25T05:07:22;99984.03;;;7.92;72.84
78144;BME280;67394;52.522;13.622;2023-04-25T05:09:48;99987.44;;;7.94;73.22
78144;BME280;67394;52.522;13.622;2023-04-25T05:12:14;99986.56;;;7.91;73.09
78144;BME280;67394;52.522;13.622;2023-04-25T05:14:41;99989.97;;;7.93;73.32
78144;BME280;67394;52.522;13.622;2023-04-25T05:17:07;99997.66;;;7.94;72.61
78144;BME280;67394;52.522;13.622;2023-04-25T05:19:34;99988.25;;;7.96;73.42
78144;BME280;67394;52.522;13.622;2023-04-25T05:22:01;99992.50;;;7.99;72.49
78144;BME280;67394;52.522;13.622;2023-04-25T05:26:55;99996.78;;;8.00;73.47
78144;BME280;67394;52.522;13.622;2023-04-25T05:29:22;99996.78;;;8.04;73.89
78144;BME280;67394;52.522;13.622;2023-04-25T05:31:48;99992.53;;;8.05;73.23
78144;BME280;67394;52.522;13.622;2023-04-25T05:34:14;99995.94;;;8.02;73.21
78144;BME280;67394;52.522;13.622;2023-04-25T05:36:41;99999.31;;;8.07;73.65
78144;BME280;67394;52.522;13.622;2023-04-25T05:39:07;99996.75;;;8.07;73.81
78144;BME280;67394;52.522;13.622;2023-04-25T05:41:33;99999.31;;;8.07;73.82
78144;BME280;67394;52.522;13.622;2023-04-25T05:44:00;100011.22;;;8.08;73.44
78144;BME280;67394;52.522;13.622;2023-04-25T05:46:26;100012.06;;;8.11;73.27
78144;BME280;67394;52.522;13.622;2023-04-25T05:49:03;100010.38;;;8.13;73.72
78144;BME280;67394;52.522;13.622;2023-04-25T05:51:30;100006.97;;;8.15;72.57
78144;BME280;67394;52.522;13.622;2023-04-25T05:53:56;100018.88;;;8.13;73.04
78144;BME280;67394;52.522;13.622;2023-04-25T05:56:33;100016.34;;;8.10;73.06
78144;BME280;67394;52.522;13.622;2023-04-25T05:59:00;100017.19;;;8.14;72.94
78144;BME280;67394;52.522;13.622;2023-04-25T06:01:26;100023.97;;;8.22;73.30
78144;BME280;67394;52.522;13.622;2023-04-25T06:04:03;100025.69;;;8.22;73.59
78144;BME280;67394;52.522;13.622;2023-04-25T06:06:30;100025.69;;;8.25;73.44
78144;BME280;67394;52.522;13.622;2023-04-25T06:08:57;100028.22;;;8.28;73.65
78144;BME280;67394;52.522;13.622;2023-04-25T06:11:22;100025.66;;;8.28;73.71
78144;BME280;67394;52.522;13.622;2023-04-25T06:13:48;100027.38;;;8.30;73.06
78144;BME280;67394;52.522;13.622;2023-04-25T06:16:15;100033.31;;;8.17;72.94
78144;BME280;67394;52.522;13.622;2023-04-25T06:18:43;100031.63;;;8.27;73.29
78144;BME280;67394;52.522;13.622;2023-04-25T06:21:09;100031.63;;;8.28;73.49
78144;BME280;67394;52.522;13.622;2023-04-25T06:23:35;100033.34;;;8.25;73.67
78144;BME280;67394;52.522;13.622;2023-04-25T06:26:02;100035.03;;;8.23;74.46
78144;BME280;67394;52.522;13.622;2023-04-25T06:28:28;100035.06;;;8.26;73.97
78144;BME280;67394;52.522;13.622;2023-04-25T06:30:54;100030.81;;;8.34;73.42
78144;BME280;67394;52.522;13.622;2023-04-25T06:33:21;100035.88;;;8.31;73.11
78144;BME280;67394;52.522;13.622;2023-04-25T06:35:47;100036.72;;;8.27;73.44
78144;BME280;67394;52.522;13.622;2023-04-25T06:38:15;100028.22;;;8.28;73.74
78144;BME280;67394;52.522;13.622;2023-04-25T06:40:41;100039.28;;;8.28;74.28
78144;BME280;67394;52.522;13.622;2023-04-25T06:43:07;100030.81;;;8.35;73.11
78144;BME280;67394;52.522;13.622;2023-04-25T06:45:34;100029.09;;;8.33;73.82
78144;BME280;67394;52.522;13.622;2023-04-25T06:48:00;100027.41;;;8.36;74.38
78144;BME280;67394;52.522;13.622;2023-04-25T06:50:26;100026.56;;;8.36;73.96
78144;BME280;67394;52.522;13.622;2023-04-25T06:52:53;100031.66;;;8.33;74.72
78144;BME280;67394;52.522;13.622;2023-04-25T06:55:19;100031.66;;;8.36;74.17
78144;BME280;67394;52.522;13.622;2023-04-25T06:57:45;100029.09;;;8.47;74.24
78144;BME280;67394;52.522;13.622;2023-04-25T07:00:12;100029.94;;;8.47;74.11
78144;BME280;67394;52.522;13.622;2023-04-25T07:02:39;100022.28;;;8.38;73.94
78144;BME280;67394;52.522;13.622;2023-04-25T07:05:06;100026.53;;;8.45;73.94
78144;BME280;67394;52.522;13.622;2023-04-25T07:07:32;100027.38;;;8.46;74.08
78144;BME280;67394;52.522;13.622;2023-04-25T07:12:26;100042.72;;;8.44;73.97
78144;BME280;67394;52.522;13.622;2023-04-25T07:14:52;100041.00;;;8.43;74.07
78144;BME280;67394;52.522;13.622;2023-04-25T07:17:19;100046.97;;;8.45;74.56
78144;BME280;67394;52.522;13.622;2023-04-25T07:19:45;100047.78;;;8.53;74.99
78144;BME280;67394;52.522;13.622;2023-04-25T07:22:11;100050.34;;;8.56;74.49
78144;BME280;67394;52.522;13.622;2023-04-25T07:24:39;100050.38;;;8.41;74.22
78144;BME280;67394;52.522;13.622;2023-04-25T07:27:05;100057.16;;;8.40;74.37
78144;BME280;67394;52.522;13.622;2023-04-25T07:29:31;100059.69;;;8.30;74.69
78144;BME280;67394;52.522;13.622;2023-04-25T07:34:23;100063.97;;;8.19;74.94
78144;BME280;67394;52.522;13.622;2023-04-25T07:36:49;100063.97;;;8.06;75.28
78144;BME280;67394;52.522;13.622;2023-04-25T07:39:15;100067.38;;;8.08;76.27
78144;BME280;67394;52.522;13.622;2023-04-25T07:41:42;100066.53;;;8.16;76.11
78144;BME280;67394;52.522;13.622;2023-04-25T07:44:08;100075.03;;;8.16;75.99
78144;BME280;67394;52.522;13.622;2023-04-25T07:46:34;100066.50;;;8.17;76.35
78144;BME280;67394;52.522;13.622;2023-04-25T07:49:01;100084.38;;;8.06;77.23
78144;BME280;67394;52.522;13.622;2023-04-25T07:51:27;100078.44;;;8.15;76.46
78144;BME280;67394;52.522;13.622;2023-04-25T07:53:53;100081.03;;;8.32;76.68
78144;BME280;67394;52.522;13.622;2023-04-25T07:56:20;100088.66;;;8.55;73.98
78144;BME280;67394;52.522;13.622;2023-04-25T07:58:46;100082.63;;;8.80;74.23
78144;BME280;67394;52.522;13.622;2023-04-25T08:01:12;100079.16;;;9.01;74.12
78144;BME280;67394;52.522;13.622;2023-04-25T08:03:39;100084.31;;;8.93;71.81
78144;BME280;67394;52.522;13.622;2023-04-25T08:06:06;100094.56;;;8.79;70.80
78144;BME280;67394;52.522;13.622;2023-04-25T08:08:34;100097.16;;;8.67;70.89
78144;BME280;67394;52.522;13.622;2023-04-25T08:11:00;100100.56;;;8.60;72.22
78144;BME280;67394;52.522;13.622;2023-04-25T08:13:26;100102.28;;;8.57;71.58
78144;BME280;67394;52.522;13.622;2023-04-25T08:15:53;100109.09;;;8.68;72.45
78144;BME280;67394;52.522;13.622;2023-04-25T08:18:19;100110.75;;;8.72;71.59
78144;BME280;67394;52.522;13.622;2023-04-25T08:20:46;100109.88;;;8.86;71.19
78144;BME280;67394;52.522;13.622;2023-04-25T08:23:12;100106.47;;;8.84;69.79
78144;BME280;67394;52.522;13.622;2023-04-25T08:25:38;100118.44;;;8.66;69.75
78144;BME280;67394;52.522;13.622;2023-04-25T08:28:05;100122.69;;;8.61;69.23
78144;BME280;67394;52.522;13.622;2023-04-25T08:30:31;100126.09;;;8.75;69.45
78144;BME280;67394;52.522;13.622;2023-04-25T08:35:27;100116.63;;;9.14;66.82
78144;BME280;67394;52.522;13.622;2023-04-25T08:37:54;100131.94;;;9.12;65.39
78144;BME280;67394;52.522;13.622;2023-04-25T08:40:22;100135.41;;;8.92;65.47
78144;BME280;67394;52.522;13.622;2023-04-25T08:42:50;100140.53;;;8.81;67.08
78144;BME280;67394;52.522;13.622;2023-04-25T08:45:16;100140.53;;;8.81;67.02
78144;BME280;67394;52.522;13.622;2023-04-25T08:47:45;100147.31;;;9.05;69.08
78144;BME280;67394;52.522;13.622;2023-04-25T08:50:12;100134.44;;;9.40;65.93
78144;BME280;67394;52.522;13.622;2023-04-25T08:52:44;100146.38;;;9.41;64.66
78144;BME280;67394;52.522;13.622;2023-04-25T08:55:12;100145.50;;;9.42;64.46
78144;BME280;67394;52.522;13.622;2023-04-25T08:57:40;100145.47;;;9.52;65.13
78144;BME280;67394;52.522;13.622;2023-04-25T09:00:09;100154.03;;;9.35;62.85
78144;BME280;67394;52.522;13.622;2023-04-25T09:02:36;100153.19;;;9.36;61.44
78144;BME280;67394;52.522;13.622;2023-04-25T09:05:03;100159.94;;;9.55;64.33
78144;BME280;67394;52.522;13.622;2023-04-25T09:07:30;100154.88;;;9.41;63.87
78144;BME280;67394;52.522;13.622;2023-04-25T09:09:56;100160.75;;;9.63;63.20
78144;BME280;67394;52.522;13.622;2023-04-25T09:12:22;100167.63;;;9.50;62.29
78144;BME280;67394;52.522;13.622;2023-04-25T09:15:09;100168.50;;;9.48;59.53
78144;BME280;67394;52.522;13.622;2023-04-25T09:17:36;100171.00;;;9.57;59.86
78144;BME280;67394;52.522;13.622;2023-04-25T09:20:09;100176.88;;;9.80;57.91
78144;BME280;67394;52.522;13.622;2023-04-25T09:22:37;100179.44;;;9.76;57.08
78144;BME280;67394;52.522;13.622;2023-04-25T09:25:07;100181.06;;;9.95;58.43
78144;BME280;67394;52.522;13.622;2023-04-25T09:27:34;100181.03;;;10.04;59.44
78144;BME280;67394;52.522;13.622;2023-04-25T09:30:00;100186.06;;;10.19;57.39
78144;BME280;67394;52.522;13.622;2023-04-25T09:32:27;100186.03;;;10.22;52.22
78144;BME280;67394;52.522;13.622;2023-04-25T09:34:57;100189.50;;;10.15;51.83
78144;BME280;67394;52.522;13.622;2023-04-25T09:39:55;100182.28;;;10.69;52.73
78144;BME280;67394;52.522;13.622;2023-04-25T09:42:23;100193.44;;;10.60;51.20
78144;BME280;67394;52.522;13.622;2023-04-25T09:44:52;100192.53;;;10.69;51.36
78144;BME280;67394;52.522;13.622;2023-04-25T09:47:18;100190.94;;;10.56;50.23
78144;BME280;67394;52.522;13.622;2023-04-25T09:49:45;100199.19;;;10.88;49.99
78144;BME280;67394;52.522;13.622;2023-04-25T09:52:20;100206.28;;;11.45;49.37
78144;BME280;67394;52.522;13.622;2023-04-25T09:54:49;100204.03;;;11.19;49.22
78144;BME280;67394;52.522;13.622;2023-04-25T09:57:19;100199.19;;;10.88;49.61
78144;BME280;67394;52.522;13.622;2023-04-25T09:59:50;100197.53;;;10.81;49.29
78144;BME280;67394;52.522;13.622;2023-04-25T10:02:27;100195.59;;;11.08;50.08
78144;BME280;67394;52.522;13.622;2023-04-25T10:04:55;100205.28;;;10.78;48.02
78144;BME280;67394;52.522;13.622;2023-04-25T10:07:24;100203.41;;;10.95;47.64
78144;BME280;67394;52.522;13.622;2023-04-25T10:09:55;100201.84;;;10.79;48.24
78144;BME280;67394;52.522;13.622;2023-04-25T10:12:22;100201.59;;;11.07;48.49
78144;BME280;67394;52.522;13.622;2023-04-25T10:14:49;100207.69;;;10.93;47.79
78144;BME280;67394;52.522;13.622;2023-04-25T10:17:16;100216.41;;;10.76;48.89
78144;BME280;67394;52.522;13.622;2023-04-25T10:19:43;100205.53;;;10.43;47.87
78144;BME280;67394;52.522;13.622;2023-04-25T10:25:01;100211.44;;;10.57;48.42
78144;BME280;67394;52.522;13.622;2023-04-25T10:27:28;100219.44;;;11.16;47.54
78144;BME280;67394;52.522;13.622;2023-04-25T10:30:03;100214.47;;;11.00;45.70
78144;BME280;67394;52.522;13.622;2023-04-25T10:32:31;100224.66;;;11.10;46.38
78144;BME280;67394;52.522;13.622;2023-04-25T10:34:57;100215.44;;;10.86;46.10
78144;BME280;67394;52.522;13.622;2023-04-25T10:37:24;100223.13;;;10.87;46.00
78144;BME280;67394;52.522;13.622;2023-04-25T10:39:50;100208.81;;;10.60;47.04
78144;BME280;67394;52.522;13.622;2023-04-25T10:42:17;100211.25;;;10.77;46.77
78144;BME280;67394;52.522;13.622;2023-04-25T10:45:00;100220.03;;;10.47;46.38
78144;BME280;67394;52.522;13.622;2023-04-25T10:50:04;100225.81;;;10.74;46.07
78144;BME280;67394;52.522;13.622;2023-04-25T10:52:32;100233.56;;;10.63;46.06
78144;BME280;67394;52.522;13.622;2023-04-25T10:54:59;100227.88;;;10.26;46.62
78144;BME280;67394;52.522;13.622;2023-04-25T11:00:05;100227.75;;;10.46;48.47
78144;BME280;67394;52.522;13.622;2023-04-25T11:02:37;100237.78;;;10.72;47.59
78144;BME280;67394;52.522;13.622;2023-04-25T11:05:04;100242.97;;;10.64;47.52
78144;BME280;67394;52.522;13.622;2023-04-25T11:07:37;100242.91;;;10.73;47.74
78144;BME280;67394;52.522;13.622;2023-04-25T11:10:05;100247.84;;;10.93;46.17
78144;BME280;67394;52.522;13.622;2023-04-25T11:12:32;100242.91;;;10.73;46.44
78144;BME280;67394;52.522;13.622;2023-04-25T11:15:03;100240.94;;;11.04;46.60
78144;BME280;67394;52.522;13.622;2023-04-25T11:17:29;100244.59;;;10.73;47.07
78144;BME280;67394;52.522;13.622;2023-04-25T11:19:56;100242.09;;;10.68;46.47
78144;BME280;67394;52.522;13.622;2023-04-25T11:22:23;100250.41;;;10.97;46.36
78144;BME280;67394;52.522;13.622;2023-04-25T11:24:49;100250.94;;;11.30;46.31
78144;BME280;67394;52.522;13.622;2023-04-25T11:27:16;100257.59;;;11.49;43.91
78144;BME280;67394;52.522;13.622;2023-04-25T11:29:42;100257.72;;;11.34;45.34
78144;BME280;67394;52.522;13.622;2023-04-25T11:32:08;100265.91;;;10.82;44.63
78144;BME280;67394;52.522;13.622;2023-04-25T11:34:35;100266.09;;;10.55;45.57
78144;BME280;67394;52.522;13.622;2023-04-25T11:37:02;100284.25;;;10.18;46.46
78144;BME280;67394;52.522;13.622;2023-04-25T11:39:29;100279.22;;;9.94;46.57
78144;BME280;67394;52.522;13.622;2023-04-25T11:41:55;100286.97;;;9.73;46.96
78144;BME280;67394;52.522;13.622;2023-04-25T11:44:22;100287.78;;;9.81;48.11
78144;BME280;67394;52.522;13.622;2023-04-25T11:46:49;100280.16;;;9.72;48.64
78144;BME280;67394;52.522;13.622;2023-04-25T11:49:15;100297.25;;;9.61;47.27
78144;BME280;67394;52.522;13.622;2023-04-25T11:51:43;100297.25;;;9.61;46.67
78144;BME280;67394;52.522;13.622;2023-04-25T11:54:11;100293.81;;;9.62;48.38
78144;BME280;67394;52.522;13.622;2023-04-25T11:56:41;100291.25;;;9.68;46.53
78144;BME280;67394;52.522;13.622;2023-04-25T11:59:07;100294.66;;;9.74;47.08
78144;BME280;67394;52.522;13.622;2023-04-25T12:01:39;100296.31;;;9.78;44.45
78144;BME280;67394;52.522;13.622;2023-04-25T12:04:15;100300.59;;;9.81;46.42
78144;BME280;67394;52.522;13.622;2023-04-25T12:06:45;100308.22;;;9.88;46.12
78144;BME280;67394;52.522;13.622;2023-04-25T12:09:12;100294.50;;;10.09;46.52
78144;BME280;67394;52.522;13.622;2023-04-25T12:11:52;100309.91;;;10.02;44.42
78144;BME280;67394;52.522;13.622;2023-04-25T12:14:27;100295.34;;;10.11;43.14
78144;BME280;67394;52.522;13.622;2023-04-25T12:16:56;100305.53;;;10.28;44.85
78144;BME280;67394;52.522;13.622;2023-04-25T12:19:23;100309.00;;;10.24;43.79
78144;BME280;67394;52.522;13.622;2023-04-25T12:21:50;100305.53;;;10.33;44.67
78144;BME280;67394;52.522;13.622;2023-04-25T12:24:24;100310.59;;;10.40;44.12
78144;BME280;67394;52.522;13.622;2023-04-25T12:29:27;100315.66;;;10.55;44.43
78144;BME280;67394;52.522;13.622;2023-04-25T12:31:54;100314.81;;;10.50;43.50
78144;BME280;67394;52.522;13.622;2023-04-25T12:34:22;100318.34;;;10.33;45.04
78144;BME280;67394;52.522;13.622;2023-04-25T12:36:49;100313.25;;;10.19;45.88
78144;BME280;67394;52.522;13.622;2023-04-25T12:39:20;100314.06;;;10.32;46.94
78144;BME280;67394;52.522;13.622;2023-04-25T12:41:47;100308.09;;;10.33;44.53
78144;BME280;67394;52.522;13.622;2023-04-25T12:44:14;100311.56;;;10.18;43.97
78144;BME280;67394;52.522;13.622;2023-04-25T12:46:40;100308.88;;;10.45;43.44
78144;BME280;67394;52.522;13.622;2023-04-25T12:49:08;100304.47;;;10.67;44.54
78144;BME280;67394;52.522;13.622;2023-04-25T12:51:44;100310.53;;;10.57;42.01
78144;BME280;67394;52.522;13.622;2023-04-25T12:54:10;100300.97;;;10.79;41.11
78144;BME280;67394;52.522;13.622;2023-04-25T12:56:37;100299.97;;;10.96;41.30
78144;BME280;67394;52.522;13.622;2023-04-25T12:59:03;100314.28;;;11.23;42.44
78144;BME280;67394;52.522;13.622;2023-04-25T13:01:29;100313.38;;;11.29;41.42
78144;BME280;67394;52.522;13.622;2023-04-25T13:03:56;100313.31;;;11.38;41.92
78144;BME280;67394;52.522;13.622;2023-04-25T13:06:22;100312.56;;;11.27;41.77
78144;BME280;67394;52.522;13.622;2023-04-25T13:08:49;100323.97;;;10.89;41.58
78144;BME280;67394;52.522;13.622;2023-04-25T13:11:16;100312.81;;;10.96;43.57
78144;BME280;67394;52.522;13.622;2023-04-25T13:13:43;100320.72;;;10.64;42.41
78144;BME280;67394;52.522;13.622;2023-04-25T13:16:10;100320.72;;;10.63;41.58
78144;BME280;67394;52.522;13.622;2023-04-25T13:18:36;100307.81;;;10.78;41.55
78144;BME280;67394;52.522;13.622;2023-04-25T13:21:03;100312.16;;;10.67;41.78
78144;BME280;67394;52.522;13.622;2023-04-25T13:23:29;100315.66;;;10.58;43.47
78144;BME280;67394;52.522;13.622;2023-04-25T13:25:56;100311.09;;;10.94;43.13
78144;BME280;67394;52.522;13.622;2023-04-25T13:28:23;100319.06;;;11.63;43.11
78144;BME280;67394;52.522;13.622;2023-04-25T13:30:49;100322.03;;;12.07;39.73
78144;BME280;67394;52.522;13.622;2023-04-25T13:33:16;100315.13;;;12.08;37.80
78144;BME280;67394;52.522;13.622;2023-04-25T13:35:42;100323.69;;;12.10;38.36